createdAt,value
2023-05-02T00:02:17.449Z,51.21
2023-05-02T00:04:44.459Z,51.32
2023-05-02T00:07:11.898Z,51.38
2023-05-02T00:09:38.828Z,51.28
2023-05-02T00:12:05.854Z,51.27
2023-05-02T00:14:32.923Z,51.26
2023-05-02T00:16:59.870Z,51.32
2023-05-02T00:19:26.745Z,51.37
2023-05-02T00:21:53.584Z,51.38
2023-05-02T00:24:20.386Z,51.22
2023-05-02T00:26:47.420Z,51.10
2023-05-02T00:29:14.209Z,51.07
2023-05-02T00:31:41.946Z,51.15
2023-05-02T00:34:08.757Z,51.30
2023-05-02T00:36:35.598Z,51.21
2023-05-02T00:39:02.419Z,51.26
2023-05-02T00:41:29.274Z,51.20
2023-05-02T00:43:56.077Z,51.14
2023-05-02T00:46:23.143Z,51.03
2023-05-02T00:48:50.407Z,51.11
2023-05-02T00:51:18.216Z,50.72
2023-05-02T00:53:45.692Z,50.98
2023-05-02T00:56:12.546Z,50.94
2023-05-02T00:58:41.257Z,51.02
2023-05-02T01:01:48.319Z,51.18
2023-05-02T01:04:35.839Z,51.37
2023-05-02T01:07:12.560Z,51.12
2023-05-02T01:09:57.941Z,50.97
2023-05-02T01:12:31.908Z,50.67
2023-05-02T01:15:02.334Z,50.91
2023-05-02T01:17:32.956Z,51.26
2023-05-02T01:20:12.248Z,51.43
2023-05-02T01:22:43.713Z,51.44
2023-05-02T01:25:33.541Z,51.62
2023-05-02T01:28:18.930Z,51.44
2023-05-02T01:30:47.498Z,51.51
2023-05-02T01:33:17.169Z,51.67
2023-05-02T01:35:46.426Z,51.92
2023-05-02T01:38:16.736Z,52.02
2023-05-02T01:40:46.251Z,52.01
2023-05-02T01:43:15.679Z,52.21
2023-05-02T01:45:45.652Z,52.14
2023-05-02T01:48:13.293Z,51.90
2023-05-02T01:50:44.437Z,51.88
2023-05-02T01:53:13.859Z,51.98
2023-05-02T01:55:43.933Z,51.94
2023-05-02T01:58:15.185Z,52.02
2023-05-02T02:00:45.256Z,52.18
2023-05-02T02:03:14.146Z,52.05
2023-05-02T02:05:42.501Z,51.85
2023-05-02T02:08:09.671Z,51.71
2023-05-02T02:10:45.822Z,52.05
2023-05-02T02:13:44.896Z,51.78
2023-05-02T02:16:14.670Z,51.55
2023-05-02T02:18:46.014Z,51.71
2023-05-02T02:21:18.926Z,51.60
2023-05-02T02:23:48.560Z,51.62
2023-05-02T02:26:18.092Z,51.61
2023-05-02T02:28:45.145Z,51.47
2023-05-02T02:31:12.128Z,51.90
2023-05-02T02:33:39.017Z,51.71
2023-05-02T02:36:18.214Z,51.86
2023-05-02T02:38:56.562Z,51.96
2023-05-02T02:41:43.617Z,51.78
2023-05-02T02:44:30.967Z,51.96
2023-05-02T02:47:09.576Z,51.86
2023-05-02T02:49:51.453Z,52.13
2023-05-02T02:52:33.855Z,52.01
2023-05-02T02:55:13.124Z,52.22
2023-05-02T02:57:57.979Z,52.33
2023-05-02T03:00:27.371Z,52.42
2023-05-02T03:02:56.536Z,52.23
2023-05-02T03:05:23.966Z,52.29
2023-05-02T03:07:51.208Z,52.30
2023-05-02T03:10:18.615Z,52.65
2023-05-02T03:12:45.490Z,52.76
2023-05-02T03:15:51.327Z,52.71
2023-05-02T03:18:23.099Z,52.48
2023-05-02T03:20:49.917Z,52.44
2023-05-02T03:23:16.798Z,52.45
2023-05-02T03:25:43.588Z,52.42
2023-05-02T03:28:14.025Z,52.49
2023-05-02T03:30:43.901Z,52.63
2023-05-02T03:33:11.081Z,52.57
2023-05-02T03:35:42.621Z,52.62
2023-05-02T03:38:11.073Z,52.48
2023-05-02T03:40:38.058Z,52.37
2023-05-02T03:43:09.315Z,52.62
2023-05-02T03:45:36.239Z,52.67
2023-05-02T03:48:03.185Z,52.93
2023-05-02T03:50:30.928Z,53.11
2023-05-02T03:52:57.932Z,53.29
2023-05-02T03:55:40.753Z,53.50
2023-05-02T03:58:10.655Z,53.45
2023-05-02T04:00:38.736Z,53.67
2023-05-02T04:03:08.606Z,53.86
2023-05-02T04:05:39.285Z,54.01
2023-05-02T04:08:06.414Z,54.41
2023-05-02T04:10:33.326Z,54.51
2023-05-02T04:13:04.020Z,54.65
2023-05-02T04:15:32.918Z,54.66
2023-05-02T04:18:00.749Z,54.91
2023-05-02T04:20:29.218Z,55.06
2023-05-02T04:22:56.081Z,55.25
2023-05-02T04:25:23.071Z,55.31
2023-05-02T04:27:52.286Z,55.44
2023-05-02T04:30:22.174Z,55.24
2023-05-02T04:33:04.330Z,55.00
2023-05-02T04:35:35.078Z,55.09
2023-05-02T04:38:03.290Z,54.85
2023-05-02T04:40:30.866Z,54.64
2023-05-02T04:43:03.442Z,54.31
2023-05-02T04:45:48.293Z,54.15
2023-05-02T04:48:22.817Z,54.16
2023-05-02T04:50:50.035Z,54.26
2023-05-02T04:53:16.910Z,54.03
2023-05-02T04:55:43.841Z,54.18
2023-05-02T04:58:10.991Z,54.38
2023-05-02T05:00:38.867Z,54.47
2023-05-02T05:03:06.427Z,54.62
2023-05-02T05:05:33.914Z,54.83
2023-05-02T05:08:01.676Z,54.83
2023-05-02T05:10:32.201Z,54.91
2023-05-02T05:12:59.031Z,54.95
2023-05-02T05:15:27.240Z,55.11
2023-05-02T05:17:58.606Z,54.99
2023-05-02T05:20:25.498Z,55.06
2023-05-02T05:22:55.943Z,54.87
2023-05-02T05:25:23.064Z,54.92
2023-05-02T05:27:52.471Z,55.00
2023-05-02T05:30:19.753Z,55.07
2023-05-02T05:32:47.512Z,55.07
2023-05-02T05:35:14.442Z,55.25
2023-05-02T05:37:41.479Z,55.19
2023-05-02T05:40:11.670Z,55.02
2023-05-02T05:42:40.986Z,55.17
2023-05-02T05:45:16.344Z,55.10
2023-05-02T05:47:43.712Z,55.01
2023-05-02T05:50:11.020Z,55.02
2023-05-02T05:52:39.492Z,55.04
2023-05-02T05:55:07.133Z,54.89
2023-05-02T05:57:33.993Z,55.11
2023-05-02T06:00:01.582Z,55.07
2023-05-02T06:02:30.168Z,55.16
2023-05-02T06:04:57.638Z,55.03
2023-05-02T06:07:25.834Z,55.06
2023-05-02T06:09:52.630Z,55.07
2023-05-02T06:12:21.312Z,55.00
2023-05-02T06:14:48.084Z,55.05
2023-05-02T06:17:15.428Z,55.12
2023-05-02T06:19:42.271Z,55.01
2023-05-02T06:22:12.264Z,55.10
2023-05-02T06:24:39.004Z,55.10
2023-05-02T06:27:05.769Z,55.11
2023-05-02T06:29:32.613Z,55.19
2023-05-02T06:31:59.448Z,55.26
2023-05-02T06:34:26.358Z,55.31
2023-05-02T06:36:56.701Z,55.12
2023-05-02T06:39:23.584Z,55.39
2023-05-02T06:41:50.499Z,55.32
2023-05-02T06:44:18.327Z,55.59
2023-05-02T06:46:45.177Z,55.40
2023-05-02T06:49:12.069Z,55.45
2023-05-02T06:51:39.594Z,55.43
2023-05-02T06:54:06.585Z,55.50
2023-05-02T06:56:33.403Z,55.52
2023-05-02T06:59:00.309Z,55.29
2023-05-02T07:01:27.698Z,55.12
2023-05-02T07:03:54.630Z,55.13
2023-05-02T07:06:21.945Z,54.97
2023-05-02T07:08:48.854Z,55.02
2023-05-02T07:11:16.036Z,54.75
2023-05-02T07:13:43.237Z,54.54
2023-05-02T07:16:10.095Z,54.58
2023-05-02T07:18:37.349Z,54.52
2023-05-02T07:21:04.298Z,54.29
2023-05-02T07:23:31.219Z,54.27
2023-05-02T07:25:58.004Z,54.05
2023-05-02T07:28:24.845Z,54.09
2023-05-02T07:30:52.195Z,54.09
2023-05-02T07:33:19.210Z,54.07
2023-05-02T07:35:46.115Z,54.08
2023-05-02T07:38:12.981Z,54.16
2023-05-02T07:40:39.809Z,54.39
2023-05-02T07:43:07.538Z,54.33
2023-05-02T07:45:36.228Z,54.24
2023-05-02T07:48:03.897Z,54.25
2023-05-02T07:50:31.009Z,54.13
2023-05-02T07:52:57.865Z,54.28
2023-05-02T07:55:26.532Z,54.23
2023-05-02T07:57:54.030Z,54.17
2023-05-02T08:00:21.164Z,54.02
2023-05-02T08:02:48.122Z,54.06
2023-05-02T08:05:15.099Z,53.93
2023-05-02T08:07:42.543Z,53.74
2023-05-02T08:10:10.417Z,54.36
2023-05-02T08:12:41.440Z,53.80
2023-05-02T08:15:11.897Z,53.91
2023-05-02T08:17:38.791Z,54.00
2023-05-02T08:20:06.484Z,54.09
2023-05-02T08:22:33.245Z,54.13
2023-05-02T08:25:00.147Z,54.14
2023-05-02T08:27:28.228Z,54.20
2023-05-02T08:29:55.021Z,54.38
2023-05-02T08:32:22.443Z,54.45
2023-05-02T08:34:50.823Z,54.52
2023-05-02T08:37:18.466Z,54.49
2023-05-02T08:39:45.818Z,54.51
2023-05-02T08:42:12.840Z,54.29
2023-05-02T08:44:39.783Z,54.37
2023-05-02T08:47:10.706Z,54.28
2023-05-02T08:49:38.697Z,54.14
2023-05-02T08:52:06.761Z,54.16
2023-05-02T08:54:34.105Z,53.96
2023-05-02T08:57:03.373Z,53.61
2023-05-02T08:59:30.558Z,54.07
2023-05-02T09:02:23.226Z,53.64
2023-05-02T09:04:55.878Z,53.42
2023-05-02T09:07:23.130Z,53.20
2023-05-02T09:09:50.207Z,53.06
2023-05-02T09:12:17.044Z,52.41
2023-05-02T09:14:44.951Z,52.31
2023-05-02T09:17:11.917Z,52.35
2023-05-02T09:19:38.712Z,52.23
2023-05-02T09:22:05.525Z,51.92
2023-05-02T09:24:33.493Z,51.47
2023-05-02T09:27:04.120Z,51.58
2023-05-02T09:29:37.651Z,51.46
2023-05-02T09:32:06.106Z,51.21
2023-05-02T09:34:34.433Z,50.85
2023-05-02T09:37:02.745Z,50.78
2023-05-02T09:39:29.663Z,50.38
2023-05-02T09:41:57.908Z,50.46
2023-05-02T09:44:27.214Z,49.98
2023-05-02T09:46:57.271Z,49.69
2023-05-02T09:49:38.977Z,50.25
2023-05-02T09:52:17.368Z,49.72
2023-05-02T09:54:46.333Z,49.63
2023-05-02T09:57:13.282Z,49.82
2023-05-02T09:59:41.014Z,49.48
2023-05-02T10:02:11.007Z,49.46
2023-05-02T10:04:39.574Z,49.08
2023-05-02T10:07:10.292Z,48.95
2023-05-02T10:09:43.162Z,48.97
2023-05-02T10:12:09.937Z,48.59
2023-05-02T10:14:43.719Z,48.21
2023-05-02T10:17:30.947Z,48.50
2023-05-02T10:20:03.665Z,47.51
2023-05-02T10:22:31.526Z,46.72
2023-05-02T10:24:59.822Z,46.79
2023-05-02T10:27:27.148Z,46.17
2023-05-02T10:29:54.858Z,45.61
2023-05-02T10:32:23.345Z,45.62
2023-05-02T10:34:51.779Z,45.21
2023-05-02T10:37:19.414Z,45.41
2023-05-02T10:39:46.235Z,45.38
2023-05-02T10:42:14.402Z,45.23
2023-05-02T10:44:41.848Z,45.16
2023-05-02T10:47:27.641Z,45.26
2023-05-02T10:50:00.963Z,44.89
2023-05-02T10:52:37.865Z,44.67
2023-05-02T10:55:22.205Z,44.67
2023-05-02T10:58:21.332Z,45.38
2023-05-02T11:00:48.335Z,45.25
2023-05-02T11:03:15.243Z,45.39
2023-05-02T11:06:06.934Z,45.13
2023-05-02T11:08:33.898Z,45.58
2023-05-02T11:11:43.016Z,46.01
2023-05-02T11:14:11.760Z,44.76
2023-05-02T11:16:57.476Z,44.38
2023-05-02T11:19:25.577Z,43.96
2023-05-02T11:21:53.836Z,43.40
2023-05-02T11:24:44.429Z,43.56
2023-05-02T11:27:29.845Z,43.94
2023-05-02T11:30:09.991Z,43.83
2023-05-02T11:32:46.754Z,44.11
2023-05-02T11:35:26.844Z,44.59
2023-05-02T11:37:58.643Z,43.45
2023-05-02T11:40:27.038Z,43.76
2023-05-02T11:42:54.559Z,43.65
2023-05-02T11:45:21.811Z,43.62
2023-05-02T11:47:51.410Z,43.90
2023-05-02T11:50:18.574Z,43.75
2023-05-02T11:52:46.100Z,43.47
2023-05-02T11:55:15.767Z,43.98
2023-05-02T11:57:43.087Z,43.66
2023-05-02T12:00:13.359Z,43.40
2023-05-02T12:02:50.262Z,43.51
2023-05-02T12:05:32.409Z,44.38
2023-05-02T12:08:01.100Z,44.50
2023-05-02T12:10:38.244Z,44.51
2023-05-02T12:13:06.592Z,44.53
2023-05-02T12:15:33.960Z,44.02
2023-05-02T12:18:01.594Z,44.11
2023-05-02T12:20:28.504Z,44.35
2023-05-02T12:22:55.539Z,44.19
2023-05-02T12:25:22.497Z,44.35
2023-05-02T12:28:03.079Z,44.00
2023-05-02T12:30:31.523Z,44.26
2023-05-02T12:33:02.595Z,43.95
2023-05-02T12:35:31.118Z,43.81
2023-05-02T12:38:11.790Z,43.52
2023-05-02T12:40:39.918Z,43.52
2023-05-02T12:43:10.493Z,42.66
2023-05-02T12:45:37.581Z,42.68
2023-05-02T12:48:26.278Z,42.37
2023-05-02T12:50:55.238Z,42.74
2023-05-02T12:53:43.087Z,42.57
2023-05-02T12:56:11.470Z,42.73
2023-05-02T12:58:43.351Z,43.19
2023-05-02T13:01:10.681Z,43.06
2023-05-02T13:03:37.995Z,42.40
2023-05-02T13:06:05.304Z,42.66
2023-05-02T13:08:34.264Z,41.79
2023-05-02T13:11:02.834Z,42.05
2023-05-02T13:13:30.591Z,42.39
2023-05-02T13:15:57.401Z,42.52
2023-05-02T13:18:25.054Z,41.44
2023-05-02T13:20:51.915Z,41.64
2023-05-02T13:23:18.719Z,41.52
2023-05-02T13:25:45.592Z,41.48
2023-05-02T13:28:12.392Z,40.48
2023-05-02T13:30:39.237Z,40.10
2023-05-02T13:33:06.145Z,39.72
2023-05-02T13:35:35.168Z,39.37
2023-05-02T13:38:02.865Z,38.99
2023-05-02T13:40:29.664Z,39.47
2023-05-02T13:42:56.425Z,39.42
2023-05-02T13:45:23.363Z,39.87
2023-05-02T13:47:50.207Z,39.99
2023-05-02T13:50:17.179Z,39.60
2023-05-02T13:52:44.144Z,39.65
2023-05-02T13:55:10.915Z,39.57
2023-05-02T13:57:37.730Z,39.74
2023-05-02T14:00:05.547Z,38.55
2023-05-02T14:02:32.555Z,38.18
2023-05-02T14:04:59.404Z,37.31
2023-05-02T14:07:26.340Z,38.17
2023-05-02T14:09:53.141Z,37.74
2023-05-02T14:12:20.088Z,37.96
2023-05-02T14:14:46.903Z,38.09
2023-05-02T14:17:13.944Z,38.24
2023-05-02T14:19:41.663Z,37.31
2023-05-02T14:22:08.519Z,37.24
2023-05-02T14:24:35.386Z,37.55
2023-05-02T14:27:02.436Z,37.15
2023-05-02T14:29:29.303Z,37.59
2023-05-02T14:31:56.187Z,37.43
2023-05-02T14:34:26.734Z,36.72
2023-05-02T14:36:53.609Z,36.06
2023-05-02T14:39:21.053Z,35.53
2023-05-02T14:41:48.134Z,35.77
2023-05-02T14:44:15.058Z,36.02
2023-05-02T14:46:42.106Z,35.83
2023-05-02T14:49:09.225Z,35.98
2023-05-02T14:51:39.440Z,36.04
2023-05-02T14:54:07.091Z,36.17
2023-05-02T14:56:34.070Z,36.38
2023-05-02T14:59:00.903Z,36.49
2023-05-02T15:01:27.873Z,36.01
2023-05-02T15:04:04.918Z,35.53
2023-05-02T15:06:34.929Z,35.94
2023-05-02T15:09:02.166Z,35.63
2023-05-02T15:11:28.978Z,35.68
2023-05-02T15:13:58.472Z,35.66
2023-05-02T15:16:26.854Z,35.60
2023-05-02T15:18:54.037Z,35.96
2023-05-02T15:21:21.366Z,35.84
2023-05-02T15:23:48.212Z,35.47
2023-05-02T15:26:15.169Z,35.28
2023-05-02T15:28:42.121Z,35.27
2023-05-02T15:31:09.001Z,35.06
2023-05-02T15:33:35.985Z,34.93
2023-05-02T15:36:02.880Z,34.81
2023-05-02T15:38:34.678Z,34.07
2023-05-02T15:41:01.482Z,33.77
2023-05-02T15:43:28.382Z,32.96
2023-05-02T15:45:58.456Z,32.75
2023-05-02T15:48:30.800Z,32.35
2023-05-02T15:50:57.772Z,32.56
2023-05-02T15:53:24.663Z,32.09
2023-05-02T15:55:52.838Z,30.96
2023-05-02T15:58:20.229Z,30.82
2023-05-02T16:00:47.544Z,29.68
2023-05-02T16:03:15.770Z,30.12
2023-05-02T16:05:42.732Z,30.76
2023-05-02T16:08:09.889Z,30.47
2023-05-02T16:10:39.081Z,29.69
2023-05-02T16:13:05.954Z,30.07
2023-05-02T16:15:32.817Z,30.19
2023-05-02T16:17:59.718Z,30.00
2023-05-02T16:20:27.772Z,30.00
2023-05-02T16:22:55.157Z,28.98
2023-05-02T16:25:22.155Z,28.62
2023-05-02T16:27:49.149Z,28.23
2023-05-02T16:30:16.339Z,27.92
2023-05-02T16:32:43.231Z,27.86
2023-05-02T16:35:12.790Z,27.58
2023-05-02T16:37:41.341Z,27.08
2023-05-02T16:40:09.625Z,26.83
2023-05-02T16:42:37.198Z,26.16
2023-05-02T16:45:04.494Z,25.82
2023-05-02T16:47:31.365Z,24.86
2023-05-02T16:49:59.704Z,25.17
2023-05-02T16:52:27.249Z,25.40
2023-05-02T16:54:54.725Z,24.60
2023-05-02T16:57:22.096Z,25.02
2023-05-02T16:59:51.075Z,24.96
2023-05-02T17:02:20.744Z,24.35
2023-05-02T17:04:48.571Z,25.79
2023-05-02T17:07:15.586Z,24.09
2023-05-02T17:09:44.338Z,23.64
2023-05-02T17:12:12.735Z,24.27
2023-05-02T17:14:42.364Z,23.99
2023-05-02T17:17:10.128Z,24.57
2023-05-02T17:19:37.242Z,24.33
2023-05-02T17:22:04.997Z,24.66
2023-05-02T17:24:32.554Z,24.85
2023-05-02T17:26:59.779Z,24.73
2023-05-02T17:29:26.748Z,25.12
2023-05-02T17:31:53.635Z,24.79
2023-05-02T17:34:25.523Z,25.39
2023-05-02T17:36:52.373Z,25.80
2023-05-02T17:39:19.257Z,25.88
2023-05-02T17:41:46.212Z,26.34
2023-05-02T17:44:13.030Z,26.89
2023-05-02T17:46:39.949Z,27.48
2023-05-02T17:49:06.812Z,27.81
2023-05-02T17:51:33.683Z,28.19
2023-05-02T17:54:00.855Z,28.96
2023-05-02T17:56:28.396Z,29.62
2023-05-02T17:58:55.328Z,30.03
2023-05-02T18:01:22.196Z,30.42
2023-05-02T18:03:49.949Z,31.30
2023-05-02T18:06:18.099Z,31.47
2023-05-02T18:08:45.852Z,32.02
2023-05-02T18:11:20.155Z,32.40
2023-05-02T18:13:48.392Z,32.42
2023-05-02T18:16:15.443Z,32.75
2023-05-02T18:18:43.664Z,33.30
2023-05-02T18:21:11.459Z,33.73
2023-05-02T18:23:40.034Z,33.88
2023-05-02T18:26:13.248Z,33.93
2023-05-02T18:28:42.714Z,34.24
2023-05-02T18:31:17.532Z,34.73
2023-05-02T18:33:44.502Z,34.52
2023-05-02T18:36:11.381Z,34.72
2023-05-02T18:38:39.009Z,34.66
2023-05-02T18:41:05.955Z,34.91
2023-05-02T18:43:34.847Z,34.93
2023-05-02T18:46:01.826Z,35.10
2023-05-02T18:48:28.679Z,35.56
2023-05-02T18:50:58.672Z,35.58
2023-05-02T18:53:26.396Z,35.31
2023-05-02T18:55:54.157Z,35.42
2023-05-02T18:58:22.428Z,35.81
2023-05-02T19:00:49.282Z,36.26
2023-05-02T19:03:16.330Z,36.34
2023-05-02T19:05:43.805Z,36.27
2023-05-02T19:08:11.145Z,36.55
2023-05-02T19:10:37.969Z,36.72
2023-05-02T19:13:04.835Z,37.06
2023-05-02T19:15:34.059Z,37.39
2023-05-02T19:18:00.994Z,37.36
2023-05-02T19:20:29.876Z,37.43
2023-05-02T19:23:14.612Z,37.61
2023-05-02T19:25:44.881Z,37.77
2023-05-02T19:28:16.622Z,37.94
2023-05-02T19:30:45.252Z,38.10
2023-05-02T19:33:12.489Z,38.37
2023-05-02T19:35:39.440Z,38.54
2023-05-02T19:38:06.348Z,38.66
2023-05-02T19:40:33.275Z,38.49
2023-05-02T19:43:00.063Z,38.61
2023-05-02T19:45:27.653Z,38.80
2023-05-02T19:47:56.851Z,38.70
2023-05-02T19:50:26.228Z,38.98
2023-05-02T19:52:53.056Z,38.90
2023-05-02T19:55:20.726Z,38.90
2023-05-02T19:57:48.628Z,38.99
2023-05-02T20:00:15.898Z,39.21
2023-05-02T20:02:44.460Z,39.21
2023-05-02T20:05:11.629Z,39.59
2023-05-02T20:07:38.566Z,39.73
2023-05-02T20:10:06.242Z,39.76
2023-05-02T20:12:33.096Z,39.72
2023-05-02T20:14:59.874Z,39.70
2023-05-02T20:17:26.882Z,39.98
2023-05-02T20:19:53.950Z,40.30
2023-05-02T20:22:20.794Z,40.42
2023-05-02T20:24:47.752Z,40.41
2023-05-02T20:27:14.589Z,40.55
2023-05-02T20:29:41.556Z,40.50
2023-05-02T20:32:09.040Z,40.65
2023-05-02T20:34:36.120Z,40.92
2023-05-02T20:37:06.862Z,40.74
2023-05-02T20:39:35.104Z,40.84
2023-05-02T20:42:03.610Z,40.85
2023-05-02T20:44:36.451Z,40.87
2023-05-02T20:47:06.835Z,40.98
2023-05-02T20:49:33.710Z,41.07
2023-05-02T20:52:06.546Z,41.13
2023-05-02T20:54:33.702Z,41.04
2023-05-02T20:57:00.497Z,41.13
2023-05-02T20:59:27.318Z,41.16
2023-05-02T21:01:54.193Z,41.11
2023-05-02T21:04:21.280Z,41.21
2023-05-02T21:06:48.172Z,41.27
2023-05-02T21:09:16.872Z,41.38
2023-05-02T21:11:43.763Z,41.87
2023-05-02T21:14:11.696Z,41.74
2023-05-02T21:16:38.482Z,41.88
2023-05-02T21:19:05.455Z,42.07
2023-05-02T21:21:32.283Z,42.07
2023-05-02T21:23:59.133Z,42.44
2023-05-02T21:26:26.162Z,42.29
2023-05-02T21:28:53.357Z,42.49
2023-05-02T21:31:20.290Z,42.74
2023-05-02T21:33:47.189Z,42.85
2023-05-02T21:36:14.945Z,42.97
2023-05-02T21:38:41.746Z,43.03
2023-05-02T21:41:08.939Z,43.04
2023-05-02T21:43:39.649Z,43.14
2023-05-02T21:46:06.680Z,43.26
2023-05-02T21:48:34.004Z,43.31
2023-05-02T21:51:01.011Z,43.36
2023-05-02T21:53:28.005Z,43.71
2023-05-02T21:55:55.221Z,43.72
2023-05-02T21:58:22.093Z,43.76
2023-05-02T22:00:48.958Z,43.77
2023-05-02T22:03:15.867Z,43.92
2023-05-02T22:05:42.795Z,43.95
2023-05-02T22:08:12.524Z,44.43
2023-05-02T22:10:42.411Z,44.15
2023-05-02T22:13:14.747Z,44.37
2023-05-02T22:15:46.579Z,44.56
2023-05-02T22:18:16.567Z,44.17
2023-05-02T22:20:44.256Z,43.96
2023-05-02T22:23:12.375Z,44.14
2023-05-02T22:25:44.795Z,44.56
2023-05-02T22:28:12.274Z,44.58
2023-05-02T22:30:40.115Z,44.88
2023-05-02T22:33:07.463Z,44.71
2023-05-02T22:35:34.457Z,44.85
2023-05-02T22:38:04.885Z,45.15
2023-05-02T22:40:32.563Z,45.19
2023-05-02T22:43:00.662Z,45.38
2023-05-02T22:45:27.835Z,45.30
2023-05-02T22:47:55.155Z,45.41
2023-05-02T22:50:22.120Z,45.57
2023-05-02T22:52:49.141Z,45.63
2023-05-02T22:55:17.281Z,45.43
2023-05-02T22:57:44.211Z,45.75
2023-05-02T23:00:12.196Z,45.80
2023-05-02T23:02:39.616Z,45.69
2023-05-02T23:05:07.218Z,45.79
2023-05-02T23:07:34.154Z,45.94
2023-05-02T23:10:01.580Z,45.97
2023-05-02T23:12:28.728Z,45.83
2023-05-02T23:14:56.806Z,46.12
2023-05-02T23:17:23.770Z,45.77
2023-05-02T23:19:50.750Z,45.88
2023-05-02T23:22:17.606Z,45.95
2023-05-02T23:24:46.801Z,46.02
2023-05-02T23:27:14.272Z,45.51
2023-05-02T23:29:41.789Z,45.48
2023-05-02T23:32:08.789Z,45.53
2023-05-02T23:34:38.885Z,45.64
2023-05-02T23:37:06.780Z,45.67
2023-05-02T23:39:33.713Z,45.82
2023-05-02T23:42:03.461Z,45.73
2023-05-02T23:44:31.178Z,45.69
2023-05-02T23:46:59.427Z,45.69
2023-05-02T23:49:27.158Z,45.67
2023-05-02T23:51:54.020Z,45.80
2023-05-02T23:54:20.861Z,45.96
2023-05-02T23:56:47.789Z,46.03
2023-05-02T23:59:15.127Z,46.27
